sensor_id;sensor_type;location;lat;lon;timestamp;temperature;humidity
17333;DHT22;8784;50.94667800;7.08448400;2022-08-21T00:01:46;17.80;93.20
17333;DHT22;8784;50.94667800;7.08448400;2022-08-21T00:04:13;17.60;93.30
17333;DHT22;8784;50.94667800;7.08448400;2022-08-21T00:06:42;17.50;93.70
17333;DHT22;8784;50.94667800;7.08448400;2022-08-21T00:09:09;17.40;93.80
17333;DHT22;8784;50.94667800;7.08448400;2022-08-21T00:11:37;17.40;94.00
17333;DHT22;8784;50.94667800;7.08448400;2022-08-21T00:14:06;17.40;94.00
17333;DHT22;8784;50.94667800;7.08448400;2022-08-21T00:16:34;17.30;94.20
17333;DHT22;8784;50.94667800;7.08448400;2022-08-21T00:19:01;17.20;94.90
17333;DHT22;8784;50.94667800;7.08448400;2022-08-21T00:21:29;17.30;95.10
17333;DHT22;8784;50.94667800;7.08448400;2022-08-21T00:23:57;17.40;95.60
17333;DHT22;8784;50.94667800;7.08448400;2022-08-21T00:26:24;17.50;95.30
17333;DHT22;8784;50.94667800;7.08448400;2022-08-21T00:28:52;17.40;95.20
17333;DHT22;8784;50.94667800;7.08448400;2022-08-21T00:31:19;17.50;95.40
17333;DHT22;8784;50.94667800;7.08448400;2022-08-21T00:33:46;17.50;95.60
17333;DHT22;8784;50.94667800;7.08448400;2022-08-21T00:36:13;17.70;95.90
17333;DHT22;8784;50.94667800;7.08448400;2022-08-21T00:38:40;17.80;95.70
17333;DHT22;8784;50.94667800;7.08448400;2022-08-21T00:41:10;17.90;95.50
17333;DHT22;8784;50.94667800;7.08448400;2022-08-21T00:43:39;17.90;95.40
17333;DHT22;8784;50.94667800;7.08448400;2022-08-21T00:46:06;17.80;95.60
17333;DHT22;8784;50.94667800;7.08448400;2022-08-21T00:48:34;17.80;95.90
17333;DHT22;8784;50.94667800;7.08448400;2022-08-21T00:51:04;17.90;95.60
17333;DHT22;8784;50.94667800;7.08448400;2022-08-21T00:53:33;18.00;95.70
17333;DHT22;8784;50.94667800;7.08448400;2022-08-21T00:56:02;18.00;95.80
17333;DHT22;8784;50.94667800;7.08448400;2022-08-21T00:58:31;18.10;95.80
17333;DHT22;8784;50.94667800;7.08448400;2022-08-21T01:01:03;18.20;95.60
17333;DHT22;8784;50.94667800;7.08448400;2022-08-21T01:03:31;18.20;95.80
17333;DHT22;8784;50.94667800;7.08448400;2022-08-21T01:05:58;18.30;95.90
17333;DHT22;8784;50.94667800;7.08448400;2022-08-21T01:08:25;18.40;95.80
17333;DHT22;8784;50.94667800;7.08448400;2022-08-21T01:10:53;18.50;95.70
17333;DHT22;8784;50.94667800;7.08448400;2022-08-21T01:13:21;18.60;95.50
17333;DHT22;8784;50.94667800;7.08448400;2022-08-21T01:15:53;18.60;95.60
17333;DHT22;8784;50.94667800;7.08448400;2022-08-21T01:18:20;18.60;95.00
17333;DHT22;8784;50.94667800;7.08448400;2022-08-21T01:21:01;18.50;94.70
17333;DHT22;8784;50.94667800;7.08448400;2022-08-21T01:23:29;18.30;94.70
17333;DHT22;8784;50.94667800;7.08448400;2022-08-21T01:25:56;18.10;94.60
17333;DHT22;8784;50.94667800;7.08448400;2022-08-21T01:28:24;18.10;94.80
17333;DHT22;8784;50.94667800;7.08448400;2022-08-21T01:30:52;17.90;94.90
17333;DHT22;8784;50.94667800;7.08448400;2022-08-21T01:33:22;17.80;95.00
17333;DHT22;8784;50.94667800;7.08448400;2022-08-21T01:35:50;17.70;95.10
17333;DHT22;8784;50.94667800;7.08448400;2022-08-21T01:38:18;17.70;95.30
17333;DHT22;8784;50.94667800;7.08448400;2022-08-21T01:40:45;17.60;95.40
17333;DHT22;8784;50.94667800;7.08448400;2022-08-21T01:43:12;17.50;95.40
17333;DHT22;8784;50.94667800;7.08448400;2022-08-21T01:45:39;17.30;95.60
17333;DHT22;8784;50.94667800;7.08448400;2022-08-21T01:48:06;17.20;95.80
17333;DHT22;8784;50.94667800;7.08448400;2022-08-21T01:50:33;17.20;96.00
17333;DHT22;8784;50.94667800;7.08448400;2022-08-21T01:53:00;17.10;96.10
17333;DHT22;8784;50.94667800;7.08448400;2022-08-21T01:55:29;17.10;96.20
17333;DHT22;8784;50.94667800;7.08448400;2022-08-21T01:57:57;17.00;96.30
17333;DHT22;8784;50.94667800;7.08448400;2022-08-21T02:00:25;17.00;96.40
17333;DHT22;8784;50.94667800;7.08448400;2022-08-21T02:02:52;17.00;96.40
17333;DHT22;8784;50.94667800;7.08448400;2022-08-21T02:05:19;16.90;96.50
17333;DHT22;8784;50.94667800;7.08448400;2022-08-21T02:07:49;16.90;96.70
17333;DHT22;8784;50.94667800;7.08448400;2022-08-21T02:10:21;16.90;96.70
17333;DHT22;8784;50.94667800;7.08448400;2022-08-21T02:12:50;16.90;96.80
17333;DHT22;8784;50.94667800;7.08448400;2022-08-21T02:15:17;16.90;96.80
17333;DHT22;8784;50.94667800;7.08448400;2022-08-21T02:17:47;16.90;97.00
17333;DHT22;8784;50.94667800;7.08448400;2022-08-21T02:20:17;17.00;97.30
17333;DHT22;8784;50.94667800;7.08448400;2022-08-21T02:22:45;17.10;97.60
17333;DHT22;8784;50.94667800;7.08448400;2022-08-21T02:25:13;17.10;97.70
17333;DHT22;8784;50.94667800;7.08448400;2022-08-21T02:27:40;17.30;97.90
17333;DHT22;8784;50.94667800;7.08448400;2022-08-21T02:30:12;17.50;97.60
17333;DHT22;8784;50.94667800;7.08448400;2022-08-21T02:32:39;17.50;97.50
17333;DHT22;8784;50.94667800;7.08448400;2022-08-21T02:35:08;17.50;97.50
17333;DHT22;8784;50.94667800;7.08448400;2022-08-21T02:37:43;17.60;97.70
17333;DHT22;8784;50.94667800;7.08448400;2022-08-21T02:40:12;17.60;97.60
17333;DHT22;8784;50.94667800;7.08448400;2022-08-21T02:42:39;17.60;97.30
17333;DHT22;8784;50.94667800;7.08448400;2022-08-21T02:45:07;17.60;97.30
17333;DHT22;8784;50.94667800;7.08448400;2022-08-21T02:47:35;17.60;97.50
17333;DHT22;8784;50.94667800;7.08448400;2022-08-21T02:50:03;17.60;97.60
17333;DHT22;8784;50.94667800;7.08448400;2022-08-21T02:52:30;17.60;97.60
17333;DHT22;8784;50.94667800;7.08448400;2022-08-21T02:54:59;17.70;97.70
17333;DHT22;8784;50.94667800;7.08448400;2022-08-21T02:57:26;17.80;97.60
17333;DHT22;8784;50.94667800;7.08448400;2022-08-21T02:59:53;17.80;97.60
17333;DHT22;8784;50.94667800;7.08448400;2022-08-21T03:02:19;17.80;97.60
17333;DHT22;8784;50.94667800;7.08448400;2022-08-21T03:04:48;17.80;97.60
17333;DHT22;8784;50.94667800;7.08448400;2022-08-21T03:07:15;17.80;97.50
17333;DHT22;8784;50.94667800;7.08448400;2022-08-21T03:09:42;17.80;97.60
17333;DHT22;8784;50.94667800;7.08448400;2022-08-21T03:12:09;17.80;97.40
17333;DHT22;8784;50.94667800;7.08448400;2022-08-21T03:14:36;17.80;97.30
17333;DHT22;8784;50.94667800;7.08448400;2022-08-21T03:17:04;17.70;97.20
17333;DHT22;8784;50.94667800;7.08448400;2022-08-21T03:19:32;17.60;97.10
17333;DHT22;8784;50.94667800;7.08448400;2022-08-21T03:22:00;17.40;97.20
17333;DHT22;8784;50.94667800;7.08448400;2022-08-21T03:24:27;17.20;97.40
17333;DHT22;8784;50.94667800;7.08448400;2022-08-21T03:26:55;17.10;97.50
17333;DHT22;8784;50.94667800;7.08448400;2022-08-21T03:29:21;17.00;97.70
17333;DHT22;8784;50.94667800;7.08448400;2022-08-21T03:31:49;16.90;98.00
17333;DHT22;8784;50.94667800;7.08448400;2022-08-21T03:34:15;16.80;97.80
17333;DHT22;8784;50.94667800;7.08448400;2022-08-21T03:36:42;16.70;97.80
17333;DHT22;8784;50.94667800;7.08448400;2022-08-21T03:39:11;16.70;97.80
17333;DHT22;8784;50.94667800;7.08448400;2022-08-21T03:41:37;16.60;97.90
17333;DHT22;8784;50.94667800;7.08448400;2022-08-21T03:44:05;16.50;98.10
17333;DHT22;8784;50.94667800;7.08448400;2022-08-21T03:46:31;16.40;98.20
17333;DHT22;8784;50.94667800;7.08448400;2022-08-21T03:48:59;16.30;98.40
17333;DHT22;8784;50.94667800;7.08448400;2022-08-21T03:51:26;16.20;98.50
17333;DHT22;8784;50.94667800;7.08448400;2022-08-21T03:53:53;16.20;98.60
17333;DHT22;8784;50.94667800;7.08448400;2022-08-21T03:56:21;16.00;98.70
17333;DHT22;8784;50.94667800;7.08448400;2022-08-21T03:58:48;16.10;98.80
17333;DHT22;8784;50.94667800;7.08448400;2022-08-21T04:01:15;16.10;98.80
17333;DHT22;8784;50.94667800;7.08448400;2022-08-21T04:03:42;16.00;98.80
17333;DHT22;8784;50.94667800;7.08448400;2022-08-21T04:06:09;16.00;98.80
17333;DHT22;8784;50.94667800;7.08448400;2022-08-21T04:08:36;16.00;98.80
17333;DHT22;8784;50.94667800;7.08448400;2022-08-21T04:11:04;16.00;98.70
17333;DHT22;8784;50.94667800;7.08448400;2022-08-21T04:13:33;16.10;98.70
17333;DHT22;8784;50.94667800;7.08448400;2022-08-21T04:16:00;16.10;98.80
17333;DHT22;8784;50.94667800;7.08448400;2022-08-21T04:18:27;16.10;99.00
17333;DHT22;8784;50.94667800;7.08448400;2022-08-21T04:20:56;16.10;99.40
17333;DHT22;8784;50.94667800;7.08448400;2022-08-21T04:23:24;16.20;99.70
17333;DHT22;8784;50.94667800;7.08448400;2022-08-21T04:25:52;16.40;99.80
17333;DHT22;8784;50.94667800;7.08448400;2022-08-21T04:28:23;16.50;99.80
17333;DHT22;8784;50.94667800;7.08448400;2022-08-21T04:30:52;16.70;99.70
17333;DHT22;8784;50.94667800;7.08448400;2022-08-21T04:33:19;16.80;99.40
17333;DHT22;8784;50.94667800;7.08448400;2022-08-21T04:35:47;16.80;99.30
17333;DHT22;8784;50.94667800;7.08448400;2022-08-21T04:38:14;16.80;99.10
17333;DHT22;8784;50.94667800;7.08448400;2022-08-21T04:40:41;16.80;99.10
17333;DHT22;8784;50.94667800;7.08448400;2022-08-21T04:43:09;16.80;99.20
17333;DHT22;8784;50.94667800;7.08448400;2022-08-21T04:45:39;16.90;99.30
17333;DHT22;8784;50.94667800;7.08448400;2022-08-21T04:48:10;17.00;99.20
17333;DHT22;8784;50.94667800;7.08448400;2022-08-21T04:50:41;17.00;99.10
17333;DHT22;8784;50.94667800;7.08448400;2022-08-21T04:53:14;17.10;99.10
17333;DHT22;8784;50.94667800;7.08448400;2022-08-21T04:55:42;17.10;99.10
17333;DHT22;8784;50.94667800;7.08448400;2022-08-21T04:58:11;17.20;99.00
17333;DHT22;8784;50.94667800;7.08448400;2022-08-21T05:00:39;17.20;98.90
17333;DHT22;8784;50.94667800;7.08448400;2022-08-21T05:03:09;17.30;98.90
17333;DHT22;8784;50.94667800;7.08448400;2022-08-21T05:05:38;17.30;98.80
17333;DHT22;8784;50.94667800;7.08448400;2022-08-21T05:08:07;17.30;98.70
17333;DHT22;8784;50.94667800;7.08448400;2022-08-21T05:10:36;17.30;98.60
17333;DHT22;8784;50.94667800;7.08448400;2022-08-21T05:13:03;17.30;98.90
17333;DHT22;8784;50.94667800;7.08448400;2022-08-21T05:15:31;17.40;98.70
17333;DHT22;8784;50.94667800;7.08448400;2022-08-21T05:17:58;17.30;98.30
17333;DHT22;8784;50.94667800;7.08448400;2022-08-21T05:20:27;17.10;98.20
17333;DHT22;8784;50.94667800;7.08448400;2022-08-21T05:22:54;16.90;98.30
17333;DHT22;8784;50.94667800;7.08448400;2022-08-21T05:25:21;16.80;98.40
17333;DHT22;8784;50.94667800;7.08448400;2022-08-21T05:27:48;16.70;98.60
17333;DHT22;8784;50.94667800;7.08448400;2022-08-21T05:30:15;16.60;98.70
17333;DHT22;8784;50.94667800;7.08448400;2022-08-21T05:32:42;16.50;98.80
17333;DHT22;8784;50.94667800;7.08448400;2022-08-21T05:35:09;16.40;99.00
17333;DHT22;8784;50.94667800;7.08448400;2022-08-21T05:37:38;16.30;99.10
17333;DHT22;8784;50.94667800;7.08448400;2022-08-21T05:40:06;16.30;99.20
17333;DHT22;8784;50.94667800;7.08448400;2022-08-21T05:42:34;16.30;99.30
17333;DHT22;8784;50.94667800;7.08448400;2022-08-21T05:45:01;16.30;99.50
17333;DHT22;8784;50.94667800;7.08448400;2022-08-21T05:47:27;16.30;99.60
17333;DHT22;8784;50.94667800;7.08448400;2022-08-21T05:49:55;16.30;99.60
17333;DHT22;8784;50.94667800;7.08448400;2022-08-21T05:52:22;16.30;99.70
17333;DHT22;8784;50.94667800;7.08448400;2022-08-21T05:54:50;16.20;99.70
17333;DHT22;8784;50.94667800;7.08448400;2022-08-21T05:57:20;16.30;99.90
17333;DHT22;8784;50.94667800;7.08448400;2022-08-21T05:59:47;16.30;99.90
17333;DHT22;8784;50.94667800;7.08448400;2022-08-21T06:02:16;16.40;99.90
17333;DHT22;8784;50.94667800;7.08448400;2022-08-21T06:04:43;16.50;99.90
17333;DHT22;8784;50.94667800;7.08448400;2022-08-21T06:07:10;16.50;99.90
17333;DHT22;8784;50.94667800;7.08448400;2022-08-21T06:09:37;16.60;99.90
17333;DHT22;8784;50.94667800;7.08448400;2022-08-21T06:12:08;16.60;99.90
17333;DHT22;8784;50.94667800;7.08448400;2022-08-21T06:14:37;16.70;99.90
17333;DHT22;8784;50.94667800;7.08448400;2022-08-21T06:17:05;16.80;99.90
17333;DHT22;8784;50.94667800;7.08448400;2022-08-21T06:19:32;16.90;99.90
17333;DHT22;8784;50.94667800;7.08448400;2022-08-21T06:21:59;17.00;99.90
17333;DHT22;8784;50.94667800;7.08448400;2022-08-21T06:24:26;17.20;99.80
17333;DHT22;8784;50.94667800;7.08448400;2022-08-21T06:26:54;17.30;99.80
17333;DHT22;8784;50.94667800;7.08448400;2022-08-21T06:29:22;17.60;99.70
17333;DHT22;8784;50.94667800;7.08448400;2022-08-21T06:31:50;17.80;99.50
17333;DHT22;8784;50.94667800;7.08448400;2022-08-21T06:34:18;18.10;99.10
17333;DHT22;8784;50.94667800;7.08448400;2022-08-21T06:36:45;18.50;98.90
17333;DHT22;8784;50.94667800;7.08448400;2022-08-21T06:39:12;19.10;98.80
17333;DHT22;8784;50.94667800;7.08448400;2022-08-21T06:41:40;20.20;98.80
17333;DHT22;8784;50.94667800;7.08448400;2022-08-21T06:44:06;21.40;98.70
17333;DHT22;8784;50.94667800;7.08448400;2022-08-21T06:46:35;22.60;98.30
17333;DHT22;8784;50.94667800;7.08448400;2022-08-21T06:49:02;23.70;97.50
17333;DHT22;8784;50.94667800;7.08448400;2022-08-21T06:51:30;24.90;96.50
17333;DHT22;8784;50.94667800;7.08448400;2022-08-21T06:53:57;25.80;95.20
17333;DHT22;8784;50.94667800;7.08448400;2022-08-21T06:56:24;26.70;93.80
17333;DHT22;8784;50.94667800;7.08448400;2022-08-21T06:58:51;27.60;92.20
17333;DHT22;8784;50.94667800;7.08448400;2022-08-21T07:01:19;28.20;89.70
17333;DHT22;8784;50.94667800;7.08448400;2022-08-21T07:03:48;28.80;87.20
17333;DHT22;8784;50.94667800;7.08448400;2022-08-21T07:06:15;29.30;83.90
17333;DHT22;8784;50.94667800;7.08448400;2022-08-21T07:08:42;29.80;81.50
17333;DHT22;8784;50.94667800;7.08448400;2022-08-21T07:11:13;30.20;79.20
17333;DHT22;8784;50.94667800;7.08448400;2022-08-21T07:13:41;30.30;78.30
17333;DHT22;8784;50.94667800;7.08448400;2022-08-21T07:16:08;30.50;77.40
17333;DHT22;8784;50.94667800;7.08448400;2022-08-21T07:18:36;30.70;75.50
17333;DHT22;8784;50.94667800;7.08448400;2022-08-21T07:21:06;30.90;74.00
17333;DHT22;8784;50.94667800;7.08448400;2022-08-21T07:23:35;31.10;72.60
17333;DHT22;8784;50.94667800;7.08448400;2022-08-21T07:26:04;31.30;71.60
17333;DHT22;8784;50.94667800;7.08448400;2022-08-21T07:28:32;31.40;70.70
17333;DHT22;8784;50.94667800;7.08448400;2022-08-21T07:31:00;31.60;69.10
17333;DHT22;8784;50.94667800;7.08448400;2022-08-21T07:33:29;31.60;68.10
17333;DHT22;8784;50.94667800;7.08448400;2022-08-21T07:35:57;31.60;67.00
17333;DHT22;8784;50.94667800;7.08448400;2022-08-21T07:38:26;31.80;66.20
17333;DHT22;8784;50.94667800;7.08448400;2022-08-21T07:40:55;31.80;65.40
17333;DHT22;8784;50.94667800;7.08448400;2022-08-21T07:43:22;31.80;64.80
17333;DHT22;8784;50.94667800;7.08448400;2022-08-21T07:45:49;31.80;64.60
17333;DHT22;8784;50.94667800;7.08448400;2022-08-21T07:48:16;31.80;64.30
17333;DHT22;8784;50.94667800;7.08448400;2022-08-21T07:50:43;31.80;64.10
17333;DHT22;8784;50.94667800;7.08448400;2022-08-21T07:53:10;31.80;64.30
17333;DHT22;8784;50.94667800;7.08448400;2022-08-21T07:55:39;31.80;62.80
17333;DHT22;8784;50.94667800;7.08448400;2022-08-21T07:58:06;31.70;62.60
17333;DHT22;8784;50.94667800;7.08448400;2022-08-21T08:00:34;31.50;62.10
17333;DHT22;8784;50.94667800;7.08448400;2022-08-21T08:03:01;31.50;61.90
17333;DHT22;8784;50.94667800;7.08448400;2022-08-21T08:05:29;31.40;61.90
17333;DHT22;8784;50.94667800;7.08448400;2022-08-21T08:07:56;31.30;61.90
17333;DHT22;8784;50.94667800;7.08448400;2022-08-21T08:10:24;31.20;61.70
17333;DHT22;8784;50.94667800;7.08448400;2022-08-21T08:12:53;31.10;62.20
17333;DHT22;8784;50.94667800;7.08448400;2022-08-21T08:15:23;31.00;62.00
17333;DHT22;8784;50.94667800;7.08448400;2022-08-21T08:17:51;31.00;61.90
17333;DHT22;8784;50.94667800;7.08448400;2022-08-21T08:20:19;30.90;61.70
17333;DHT22;8784;50.94667800;7.08448400;2022-08-21T08:22:47;30.70;62.10
17333;DHT22;8784;50.94667800;7.08448400;2022-08-21T08:25:15;30.60;60.80
17333;DHT22;8784;50.94667800;7.08448400;2022-08-21T08:27:42;30.40;60.00
17333;DHT22;8784;50.94667800;7.08448400;2022-08-21T08:30:14;30.10;59.70
17333;DHT22;8784;50.94667800;7.08448400;2022-08-21T08:32:41;29.90;59.30
17333;DHT22;8784;50.94667800;7.08448400;2022-08-21T08:35:09;29.70;59.10
17333;DHT22;8784;50.94667800;7.08448400;2022-08-21T08:37:36;29.60;59.50
17333;DHT22;8784;50.94667800;7.08448400;2022-08-21T08:40:07;29.40;59.20
17333;DHT22;8784;50.94667800;7.08448400;2022-08-21T08:42:37;29.20;59.10
17333;DHT22;8784;50.94667800;7.08448400;2022-08-21T08:45:06;28.90;59.00
17333;DHT22;8784;50.94667800;7.08448400;2022-08-21T08:47:38;28.60;59.20
17333;DHT22;8784;50.94667800;7.08448400;2022-08-21T08:50:10;28.30;59.50
17333;DHT22;8784;50.94667800;7.08448400;2022-08-21T08:52:45;28.30;59.40
17333;DHT22;8784;50.94667800;7.08448400;2022-08-21T08:55:18;28.30;59.20
17333;DHT22;8784;50.94667800;7.08448400;2022-08-21T08:57:48;28.40;58.90
17333;DHT22;8784;50.94667800;7.08448400;2022-08-21T09:00:18;28.40;58.60
17333;DHT22;8784;50.94667800;7.08448400;2022-08-21T09:02:47;28.80;58.50
17333;DHT22;8784;50.94667800;7.08448400;2022-08-21T09:05:22;28.90;58.30
17333;DHT22;8784;50.94667800;7.08448400;2022-08-21T09:08:02;28.80;58.70
17333;DHT22;8784;50.94667800;7.08448400;2022-08-21T09:10:38;29.00;58.80
17333;DHT22;8784;50.94667800;7.08448400;2022-08-21T09:13:17;29.30;58.40
17333;DHT22;8784;50.94667800;7.08448400;2022-08-21T09:15:53;29.70;58.40
17333;DHT22;8784;50.94667800;7.08448400;2022-08-21T09:18:34;30.00;58.10
17333;DHT22;8784;50.94667800;7.08448400;2022-08-21T09:21:20;30.40;57.80
17333;DHT22;8784;50.94667800;7.08448400;2022-08-21T09:23:57;30.60;57.70
17333;DHT22;8784;50.94667800;7.08448400;2022-08-21T09:26:29;30.90;57.90
17333;DHT22;8784;50.94667800;7.08448400;2022-08-21T09:28:59;31.20;57.10
17333;DHT22;8784;50.94667800;7.08448400;2022-08-21T09:31:29;30.90;56.80
17333;DHT22;8784;50.94667800;7.08448400;2022-08-21T09:34:03;30.50;57.20
17333;DHT22;8784;50.94667800;7.08448400;2022-08-21T09:36:37;30.40;57.80
17333;DHT22;8784;50.94667800;7.08448400;2022-08-21T09:39:05;30.70;57.90
17333;DHT22;8784;50.94667800;7.08448400;2022-08-21T09:41:34;31.10;57.50
17333;DHT22;8784;50.94667800;7.08448400;2022-08-21T09:44:03;31.60;56.70
17333;DHT22;8784;50.94667800;7.08448400;2022-08-21T09:46:31;31.90;56.20
17333;DHT22;8784;50.94667800;7.08448400;2022-08-21T09:49:01;32.20;56.20
17333;DHT22;8784;50.94667800;7.08448400;2022-08-21T09:51:30;32.50;56.20
17333;DHT22;8784;50.94667800;7.08448400;2022-08-21T09:54:10;32.70;55.00
17333;DHT22;8784;50.94667800;7.08448400;2022-08-21T09:56:50;32.90;54.30
17333;DHT22;8784;50.94667800;7.08448400;2022-08-21T09:59:35;32.90;54.20
17333;DHT22;8784;50.94667800;7.08448400;2022-08-21T10:02:24;33.00;53.80
17333;DHT22;8784;50.94667800;7.08448400;2022-08-21T10:04:57;33.10;53.30
17333;DHT22;8784;50.94667800;7.08448400;2022-08-21T10:07:29;33.20;53.90
17333;DHT22;8784;50.94667800;7.08448400;2022-08-21T10:10:03;33.10;53.50
17333;DHT22;8784;50.94667800;7.08448400;2022-08-21T10:12:38;33.00;53.30
17333;DHT22;8784;50.94667800;7.08448400;2022-08-21T10:15:13;33.30;53.00
17333;DHT22;8784;50.94667800;7.08448400;2022-08-21T10:17:47;33.50;52.50
17333;DHT22;8784;50.94667800;7.08448400;2022-08-21T10:20:24;33.50;52.20
17333;DHT22;8784;50.94667800;7.08448400;2022-08-21T10:23:02;33.30;52.10
17333;DHT22;8784;50.94667800;7.08448400;2022-08-21T10:25:37;32.90;51.70
17333;DHT22;8784;50.94667800;7.08448400;2022-08-21T10:28:10;32.70;51.90
17333;DHT22;8784;50.94667800;7.08448400;2022-08-21T10:30:46;32.60;52.00
17333;DHT22;8784;50.94667800;7.08448400;2022-08-21T10:33:28;32.50;51.70
17333;DHT22;8784;50.94667800;7.08448400;2022-08-21T10:36:09;32.60;51.70
17333;DHT22;8784;50.94667800;7.08448400;2022-08-21T10:38:55;32.70;51.80
17333;DHT22;8784;50.94667800;7.08448400;2022-08-21T10:41:37;32.80;50.80
17333;DHT22;8784;50.94667800;7.08448400;2022-08-21T10:44:13;32.70;51.80
17333;DHT22;8784;50.94667800;7.08448400;2022-08-21T10:46:51;32.70;51.50
17333;DHT22;8784;50.94667800;7.08448400;2022-08-21T10:49:39;32.80;51.40
17333;DHT22;8784;50.94667800;7.08448400;2022-08-21T10:52:24;32.60;51.40
17333;DHT22;8784;50.94667800;7.08448400;2022-08-21T10:55:02;32.50;51.60
17333;DHT22;8784;50.94667800;7.08448400;2022-08-21T10:57:41;32.40;52.00
17333;DHT22;8784;50.94667800;7.08448400;2022-08-21T11:00:26;32.30;52.20
17333;DHT22;8784;50.94667800;7.08448400;2022-08-21T11:03:03;32.00;52.00
17333;DHT22;8784;50.94667800;7.08448400;2022-08-21T11:05:39;31.80;51.90
17333;DHT22;8784;50.94667800;7.08448400;2022-08-21T11:08:33;31.40;52.40
17333;DHT22;8784;50.94667800;7.08448400;2022-08-21T11:11:14;31.10;52.00
17333;DHT22;8784;50.94667800;7.08448400;2022-08-21T11:13:45;31.20;52.90
17333;DHT22;8784;50.94667800;7.08448400;2022-08-21T11:16:19;31.10;52.70
17333;DHT22;8784;50.94667800;7.08448400;2022-08-21T11:18:52;30.90;52.60
17333;DHT22;8784;50.94667800;7.08448400;2022-08-21T11:21:29;30.70;52.60
17333;DHT22;8784;50.94667800;7.08448400;2022-08-21T11:24:14;30.50;52.30
17333;DHT22;8784;50.94667800;7.08448400;2022-08-21T11:26:46;30.10;52.60
17333;DHT22;8784;50.94667800;7.08448400;2022-08-21T11:29:19;29.90;53.00
17333;DHT22;8784;50.94667800;7.08448400;2022-08-21T11:32:01;29.70;53.20
17333;DHT22;8784;50.94667800;7.08448400;2022-08-21T11:34:41;29.70;53.50
17333;DHT22;8784;50.94667800;7.08448400;2022-08-21T11:37:17;29.70;53.10
17333;DHT22;8784;50.94667800;7.08448400;2022-08-21T11:39:54;29.70;53.20
17333;DHT22;8784;50.94667800;7.08448400;2022-08-21T11:42:27;29.70;52.90
17333;DHT22;8784;50.94667800;7.08448400;2022-08-21T11:45:09;29.60;53.20
17333;DHT22;8784;50.94667800;7.08448400;2022-08-21T11:47:49;29.50;53.40
17333;DHT22;8784;50.94667800;7.08448400;2022-08-21T11:50:21;29.40;53.50
17333;DHT22;8784;50.94667800;7.08448400;2022-08-21T11:52:53;29.40;53.60
17333;DHT22;8784;50.94667800;7.08448400;2022-08-21T11:55:28;29.40;53.80
17333;DHT22;8784;50.94667800;7.08448400;2022-08-21T11:58:00;29.50;53.80
17333;DHT22;8784;50.94667800;7.08448400;2022-08-21T12:00:32;29.50;53.80
17333;DHT22;8784;50.94667800;7.08448400;2022-08-21T12:03:07;29.50;53.40
17333;DHT22;8784;50.94667800;7.08448400;2022-08-21T12:05:39;29.50;53.50
17333;DHT22;8784;50.94667800;7.08448400;2022-08-21T12:08:11;29.50;53.60
17333;DHT22;8784;50.94667800;7.08448400;2022-08-21T12:10:41;29.50;53.40
17333;DHT22;8784;50.94667800;7.08448400;2022-08-21T12:13:11;29.40;53.30
17333;DHT22;8784;50.94667800;7.08448400;2022-08-21T12:15:47;29.30;53.10
17333;DHT22;8784;50.94667800;7.08448400;2022-08-21T12:18:24;29.20;53.20
17333;DHT22;8784;50.94667800;7.08448400;2022-08-21T12:21:02;29.10;53.10
17333;DHT22;8784;50.94667800;7.08448400;2022-08-21T12:23:32;29.00;53.60
17333;DHT22;8784;50.94667800;7.08448400;2022-08-21T12:26:26;29.00;53.40
17333;DHT22;8784;50.94667800;7.08448400;2022-08-21T12:29:21;28.90;52.90
17333;DHT22;8784;50.94667800;7.08448400;2022-08-21T12:31:59;28.90;52.90
17333;DHT22;8784;50.94667800;7.08448400;2022-08-21T12:34:36;29.00;53.40
17333;DHT22;8784;50.94667800;7.08448400;2022-08-21T12:37:11;29.10;53.30
17333;DHT22;8784;50.94667800;7.08448400;2022-08-21T12:39:44;29.20;53.40
17333;DHT22;8784;50.94667800;7.08448400;2022-08-21T12:42:18;29.20;53.10
17333;DHT22;8784;50.94667800;7.08448400;2022-08-21T12:44:50;29.20;53.40
17333;DHT22;8784;50.94667800;7.08448400;2022-08-21T12:47:26;29.10;53.40
17333;DHT22;8784;50.94667800;7.08448400;2022-08-21T12:49:58;29.10;53.40
17333;DHT22;8784;50.94667800;7.08448400;2022-08-21T12:52:30;29.20;53.70
17333;DHT22;8784;50.94667800;7.08448400;2022-08-21T12:54:59;29.30;53.50
17333;DHT22;8784;50.94667800;7.08448400;2022-08-21T12:57:29;29.30;53.30
17333;DHT22;8784;50.94667800;7.08448400;2022-08-21T12:59:59;29.40;53.00
17333;DHT22;8784;50.94667800;7.08448400;2022-08-21T13:02:31;29.40;52.90
17333;DHT22;8784;50.94667800;7.08448400;2022-08-21T13:05:02;29.40;52.70
17333;DHT22;8784;50.94667800;7.08448400;2022-08-21T13:07:31;29.40;52.90
17333;DHT22;8784;50.94667800;7.08448400;2022-08-21T13:10:03;29.50;52.80
17333;DHT22;8784;50.94667800;7.08448400;2022-08-21T13:12:33;29.50;52.70
17333;DHT22;8784;50.94667800;7.08448400;2022-08-21T13:15:04;29.40;52.60
17333;DHT22;8784;50.94667800;7.08448400;2022-08-21T13:17:36;29.30;52.60
17333;DHT22;8784;50.94667800;7.08448400;2022-08-21T13:20:06;29.30;52.70
17333;DHT22;8784;50.94667800;7.08448400;2022-08-21T13:22:40;29.20;52.80
17333;DHT22;8784;50.94667800;7.08448400;2022-08-21T13:25:10;29.30;52.90
17333;DHT22;8784;50.94667800;7.08448400;2022-08-21T13:27:39;29.30;52.90
17333;DHT22;8784;50.94667800;7.08448400;2022-08-21T13:30:10;29.30;52.50
17333;DHT22;8784;50.94667800;7.08448400;2022-08-21T13:32:41;29.40;52.80
17333;DHT22;8784;50.94667800;7.08448400;2022-08-21T13:35:15;29.50;52.50
17333;DHT22;8784;50.94667800;7.08448400;2022-08-21T13:37:43;29.50;52.50
17333;DHT22;8784;50.94667800;7.08448400;2022-08-21T13:40:16;29.30;53.10
17333;DHT22;8784;50.94667800;7.08448400;2022-08-21T13:42:47;28.90;53.40
17333;DHT22;8784;50.94667800;7.08448400;2022-08-21T13:45:21;28.70;53.50
17333;DHT22;8784;50.94667800;7.08448400;2022-08-21T13:47:49;28.40;53.60
17333;DHT22;8784;50.94667800;7.08448400;2022-08-21T13:50:20;28.30;53.30
17333;DHT22;8784;50.94667800;7.08448400;2022-08-21T13:52:56;28.30;53.30